sensor_id;sensor_type;location;lat;lon;timestamp;pressure;altitude;pressure_sealevel;temperature;humidity
54172;BME280;40076;52.354;4.970;2023-04-09T00:00:31;102702.66;;;10.00;100.00
54172;BME280;40076;52.354;4.970;2023-04-09T00:02:57;102702.66;;;10.00;100.00
54172;BME280;40076;52.354;4.970;2023-04-09T00:05:22;102692.69;;;10.00;100.00
54172;BME280;40076;52.354;4.970;2023-04-09T00:07:48;102690.78;;;10.01;100.00
54172;BME280;40076;52.354;4.970;2023-04-09T00:10:13;102691.34;;;9.98;100.00
54172;BME280;40076;52.354;4.970;2023-04-09T00:12:38;102694.56;;;9.95;100.00
54172;BME280;40076;52.354;4.970;2023-04-09T00:15:04;102684.59;;;9.95;100.00
54172;BME280;40076;52.354;4.970;2023-04-09T00:17:29;102688.91;;;9.96;100.00
54172;BME280;40076;52.354;4.970;2023-04-09T00:19:54;102689.19;;;9.95;100.00
54172;BME280;40076;52.354;4.970;2023-04-09T00:22:20;102687.03;;;9.97;100.00
54172;BME280;40076;52.354;4.970;2023-04-09T00:24:45;102687.84;;;9.97;100.00
54172;BME280;40076;52.354;4.970;2023-04-09T00:27:10;102682.16;;;9.94;100.00
54172;BME280;40076;52.354;4.970;2023-04-09T00:29:36;102675.94;;;9.93;100.00
54172;BME280;40076;52.354;4.970;2023-04-09T00:32:01;102676.47;;;9.95;100.00
54172;BME280;40076;52.354;4.970;2023-04-09T00:34:26;102673.22;;;9.93;100.00
54172;BME280;40076;52.354;4.970;2023-04-09T00:36:52;102668.38;;;9.95;100.00
54172;BME280;40076;52.354;4.970;2023-04-09T00:39:17;102667.03;;;9.93;100.00
54172;BME280;40076;52.354;4.970;2023-04-09T00:41:45;102673.22;;;9.93;100.00
54172;BME280;40076;52.354;4.970;2023-04-09T00:44:10;102658.09;;;9.92;100.00
54172;BME280;40076;52.354;4.970;2023-04-09T00:46:36;102659.72;;;9.93;100.00
54172;BME280;40076;52.354;4.970;2023-04-09T00:49:02;102665.94;;;9.94;100.00
54172;BME280;40076;52.354;4.970;2023-04-09T00:51:27;102662.19;;;9.90;100.00
54172;BME280;40076;52.354;4.970;2023-04-09T00:53:53;102663.81;;;9.91;100.00
54172;BME280;40076;52.354;4.970;2023-04-09T00:56:20;102654.59;;;9.92;100.00
54172;BME280;40076;52.354;4.970;2023-04-09T00:58:46;102662.44;;;9.93;100.00
54172;BME280;40076;52.354;4.970;2023-04-09T01:01:12;102657.84;;;9.94;100.00
54172;BME280;40076;52.354;4.970;2023-04-09T01:03:37;102654.88;;;9.95;100.00
54172;BME280;40076;52.354;4.970;2023-04-09T01:06:25;102649.47;;;9.95;100.00
54172;BME280;40076;52.354;4.970;2023-04-09T01:09:13;102646.78;;;9.95;100.00
54172;BME280;40076;52.354;4.970;2023-04-09T01:12:08;102646.50;;;9.92;100.00
54172;BME280;40076;52.354;4.970;2023-04-09T01:17:12;102648.41;;;9.91;100.00
54172;BME280;40076;52.354;4.970;2023-04-09T01:23:18;102645.97;;;9.90;100.00
54172;BME280;40076;52.354;4.970;2023-04-09T01:28:24;102647.06;;;9.89;100.00
54172;BME280;40076;52.354;4.970;2023-04-09T01:31:00;102649.19;;;9.92;100.00
54172;BME280;40076;52.354;4.970;2023-04-09T01:33:28;102650.81;;;9.93;100.00
54172;BME280;40076;52.354;4.970;2023-04-09T01:35:55;102657.56;;;9.95;100.00
54172;BME280;40076;52.354;4.970;2023-04-09T01:38:21;102653.25;;;9.94;100.00
54172;BME280;40076;52.354;4.970;2023-04-09T01:40:48;102653.81;;;9.96;100.00
54172;BME280;40076;52.354;4.970;2023-04-09T01:43:14;102644.88;;;9.96;100.00
54172;BME280;40076;52.354;4.970;2023-04-09T01:45:40;102652.19;;;9.95;100.00
54172;BME280;40076;52.354;4.970;2023-04-09T01:48:07;102653.81;;;9.96;100.00
54172;BME280;40076;52.354;4.970;2023-04-09T01:50:34;102647.31;;;9.97;100.00
54172;BME280;40076;52.354;4.970;2023-04-09T01:53:00;102649.22;;;9.97;100.00
54172;BME280;40076;52.354;4.970;2023-04-09T01:55:26;102648.66;;;10.00;100.00
54172;BME280;40076;52.354;4.970;2023-04-09T01:57:51;102652.47;;;9.99;100.00
54172;BME280;40076;52.354;4.970;2023-04-09T02:00:17;102653.25;;;9.99;100.00
54172;BME280;40076;52.354;4.970;2023-04-09T02:03:05;102654.88;;;10.00;100.00
54172;BME280;40076;52.354;4.970;2023-04-09T02:05:36;102651.66;;;9.98;100.00
54172;BME280;40076;52.354;4.970;2023-04-09T02:08:05;102653.25;;;9.99;100.00
54172;BME280;40076;52.354;4.970;2023-04-09T02:10:34;102657.06;;;9.98;100.00
54172;BME280;40076;52.354;4.970;2023-04-09T02:13:00;102646.78;;;9.95;100.00
54172;BME280;40076;52.354;4.970;2023-04-09T02:15:30;102651.91;;;9.97;100.00
54172;BME280;40076;52.354;4.970;2023-04-09T02:17:56;102650.56;;;9.94;100.00
54172;BME280;40076;52.354;4.970;2023-04-09T02:20:21;102648.94;;;9.93;100.00
54172;BME280;40076;52.354;4.970;2023-04-09T02:22:47;102649.75;;;9.94;100.00
54172;BME280;40076;52.354;4.970;2023-04-09T02:25:12;102640.81;;;9.93;100.00
54172;BME280;40076;52.354;4.970;2023-04-09T02:27:38;102648.41;;;9.96;100.00
54172;BME280;40076;52.354;4.970;2023-04-09T02:30:03;102638.41;;;9.97;100.00
54172;BME280;40076;52.354;4.970;2023-04-09T02:32:29;102641.38;;;10.00;100.00
54172;BME280;40076;52.354;4.970;2023-04-09T02:34:54;102637.59;;;10.01;100.00
54172;BME280;40076;52.354;4.970;2023-04-09T02:37:20;102643.00;;;9.96;100.00
54172;BME280;40076;52.354;4.970;2023-04-09T02:39:45;102638.97;;;9.99;100.00
54172;BME280;40076;52.354;4.970;2023-04-09T02:42:11;102640.03;;;9.98;100.00
54172;BME280;40076;52.354;4.970;2023-04-09T02:44:36;102626.81;;;9.96;100.00
54172;BME280;40076;52.354;4.970;2023-04-09T02:47:01;102630.31;;;9.97;100.00
54172;BME280;40076;52.354;4.970;2023-04-09T02:49:27;102631.13;;;9.97;100.00
54172;BME280;40076;52.354;4.970;2023-04-09T02:51:52;102627.34;;;9.98;100.00
54172;BME280;40076;52.354;4.970;2023-04-09T02:54:18;102626.25;;;9.99;100.00
54172;BME280;40076;52.354;4.970;2023-04-09T02:56:43;102621.66;;;10.00;100.00
54172;BME280;40076;52.354;4.970;2023-04-09T02:59:08;102617.88;;;10.01;100.00
54172;BME280;40076;52.354;4.970;2023-04-09T03:01:34;102619.50;;;10.02;100.00
54172;BME280;40076;52.354;4.970;2023-04-09T03:04:00;102616.78;;;10.02;100.00
54172;BME280;40076;52.354;4.970;2023-04-09T03:06:27;102611.94;;;10.04;100.00
54172;BME280;40076;52.354;4.970;2023-04-09T03:08:53;102619.22;;;10.03;100.00
54172;BME280;40076;52.354;4.970;2023-04-09T03:11:18;102611.13;;;10.03;100.00
54172;BME280;40076;52.354;4.970;2023-04-09T03:13:43;102609.25;;;10.04;100.00
54172;BME280;40076;52.354;4.970;2023-04-09T03:16:09;102604.91;;;10.03;100.00
54172;BME280;40076;52.354;4.970;2023-04-09T03:18:35;102597.06;;;10.01;100.00
54172;BME280;40076;52.354;4.970;2023-04-09T03:21:04;102602.75;;;10.00;100.00
54172;BME280;40076;52.354;4.970;2023-04-09T03:23:30;102601.94;;;9.99;100.00
54172;BME280;40076;52.354;4.970;2023-04-09T03:26:08;102596.81;;;9.98;100.00
54172;BME280;40076;52.354;4.970;2023-04-09T03:28:33;102597.63;;;9.98;100.00
54172;BME280;40076;52.354;4.970;2023-04-09T03:30:59;102593.31;;;9.97;100.00
54172;BME280;40076;52.354;4.970;2023-04-09T03:33:24;102591.44;;;9.98;100.00
54172;BME280;40076;52.354;4.970;2023-04-09T03:35:50;102591.13;;;9.99;100.00
54172;BME280;40076;52.354;4.970;2023-04-09T03:38:16;102584.13;;;9.98;100.00
54172;BME280;40076;52.354;4.970;2023-04-09T03:40:41;102588.72;;;9.98;100.00
54172;BME280;40076;52.354;4.970;2023-04-09T03:43:07;102586.03;;;9.98;100.00
54172;BME280;40076;52.354;4.970;2023-04-09T03:45:32;102576.31;;;9.97;100.00
54172;BME280;40076;52.354;4.970;2023-04-09T03:47:57;102574.41;;;9.97;100.00
54172;BME280;40076;52.354;4.970;2023-04-09T03:50:23;102574.41;;;9.97;100.00
54172;BME280;40076;52.354;4.970;2023-04-09T03:52:48;102588.44;;;9.99;100.00
54172;BME280;40076;52.354;4.970;2023-04-09T03:55:16;102577.63;;;9.99;100.00
54172;BME280;40076;52.354;4.970;2023-04-09T03:57:41;102575.22;;;9.98;100.00
54172;BME280;40076;52.354;4.970;2023-04-09T04:00:07;102572.53;;;9.98;100.00
54172;BME280;40076;52.354;4.970;2023-04-09T04:02:33;102569.00;;;9.97;100.00
54172;BME280;40076;52.354;4.970;2023-04-09T04:04:59;102569.00;;;9.97;100.00
54172;BME280;40076;52.354;4.970;2023-04-09T04:07:26;102563.06;;;9.95;100.00
54172;BME280;40076;52.354;4.970;2023-04-09T04:09:52;102568.72;;;9.94;100.00
54172;BME280;40076;52.354;4.970;2023-04-09T04:12:17;102564.41;;;9.93;100.00
54172;BME280;40076;52.354;4.970;2023-04-09T04:14:42;102566.03;;;9.94;100.00
54172;BME280;40076;52.354;4.970;2023-04-09T04:17:09;102562.25;;;9.95;100.00
54172;BME280;40076;52.354;4.970;2023-04-09T04:19:35;102562.00;;;9.96;100.00
54172;BME280;40076;52.354;4.970;2023-04-09T04:22:00;102570.91;;;9.97;100.00
54172;BME280;40076;52.354;4.970;2023-04-09T04:24:25;102574.16;;;9.99;100.00
54172;BME280;40076;52.354;4.970;2023-04-09T04:26:50;102572.78;;;10.01;100.00
54172;BME280;40076;52.354;4.970;2023-04-09T04:29:16;102571.69;;;10.02;100.00
54172;BME280;40076;52.354;4.970;2023-04-09T04:31:41;102569.81;;;10.03;100.00
54172;BME280;40076;52.354;4.970;2023-04-09T04:34:06;102567.09;;;10.03;100.00
54172;BME280;40076;52.354;4.970;2023-04-09T04:36:32;102571.69;;;10.02;100.00
54172;BME280;40076;52.354;4.970;2023-04-09T04:38:57;102570.06;;;10.01;100.00
54172;BME280;40076;52.354;4.970;2023-04-09T04:41:22;102573.59;;;10.02;100.00
54172;BME280;40076;52.354;4.970;2023-04-09T04:43:48;102571.69;;;10.02;100.00
54172;BME280;40076;52.354;4.970;2023-04-09T04:46:14;102575.47;;;10.01;100.00
54172;BME280;40076;52.354;4.970;2023-04-09T04:48:44;102570.06;;;10.01;100.00
54172;BME280;40076;52.354;4.970;2023-04-09T04:51:09;102572.78;;;10.01;100.00
54172;BME280;40076;52.354;4.970;2023-04-09T04:53:35;102570.06;;;10.01;100.00
54172;BME280;40076;52.354;4.970;2023-04-09T04:56:00;102578.72;;;10.03;100.00
54172;BME280;40076;52.354;4.970;2023-04-09T04:58:25;102573.31;;;10.03;100.00
54172;BME280;40076;52.354;4.970;2023-04-09T05:00:53;102575.22;;;10.03;100.00
54172;BME280;40076;52.354;4.970;2023-04-09T05:03:18;102582.22;;;10.04;100.00
54172;BME280;40076;52.354;4.970;2023-04-09T05:05:44;102580.06;;;10.06;100.00
54172;BME280;40076;52.354;4.970;2023-04-09T05:08:12;102580.06;;;10.06;100.00
54172;BME280;40076;52.354;4.970;2023-04-09T05:10:39;102581.16;;;10.05;100.00
54172;BME280;40076;52.354;4.970;2023-04-09T05:13:05;102580.06;;;10.06;100.00
54172;BME280;40076;52.354;4.970;2023-04-09T05:15:31;102580.88;;;10.06;100.00
54172;BME280;40076;52.354;4.970;2023-04-09T05:17:56;102581.97;;;10.05;100.00
54172;BME280;40076;52.354;4.970;2023-04-09T05:20:22;102580.06;;;10.06;100.00
54172;BME280;40076;52.354;4.970;2023-04-09T05:22:47;102583.59;;;10.06;100.00
54172;BME280;40076;52.354;4.970;2023-04-09T05:25:12;102583.03;;;10.04;100.00
54172;BME280;40076;52.354;4.970;2023-04-09T05:27:40;102591.69;;;10.06;100.00
54172;BME280;40076;52.354;4.970;2023-04-09T05:30:06;102592.47;;;10.07;100.00
54172;BME280;40076;52.354;4.970;2023-04-09T05:32:32;102581.66;;;10.07;100.00
54172;BME280;40076;52.354;4.970;2023-04-09T05:34:57;102590.88;;;10.06;100.00
54172;BME280;40076;52.354;4.970;2023-04-09T05:37:22;102589.53;;;10.03;100.00
54172;BME280;40076;52.354;4.970;2023-04-09T05:39:47;102586.81;;;10.03;100.00
54172;BME280;40076;52.354;4.970;2023-04-09T05:42:13;102585.47;;;10.01;100.00
54172;BME280;40076;52.354;4.970;2023-04-09T05:44:38;102586.28;;;10.01;100.00
54172;BME280;40076;52.354;4.970;2023-04-09T05:47:03;102582.50;;;10.02;100.00
54172;BME280;40076;52.354;4.970;2023-04-09T05:49:29;102584.66;;;10.00;100.00
54172;BME280;40076;52.354;4.970;2023-04-09T05:51:54;102583.56;;;10.01;100.00
54172;BME280;40076;52.354;4.970;2023-04-09T05:54:20;102584.66;;;10.00;100.00
54172;BME280;40076;52.354;4.970;2023-04-09T05:56:45;102590.88;;;10.01;100.00
54172;BME280;40076;52.354;4.970;2023-04-09T05:59:12;102588.97;;;10.01;100.00
54172;BME280;40076;52.354;4.970;2023-04-09T06:01:37;102590.59;;;10.02;100.00
54172;BME280;40076;52.354;4.970;2023-04-09T06:04:02;102593.31;;;10.02;100.00
54172;BME280;40076;52.354;4.970;2023-04-09T06:06:28;102590.59;;;10.02;100.00
54172;BME280;40076;52.354;4.970;2023-04-09T06:08:53;102595.44;;;10.00;100.00
54172;BME280;40076;52.354;4.970;2023-04-09T06:11:18;102597.34;;;10.00;100.00
54172;BME280;40076;52.354;4.970;2023-04-09T06:13:45;102590.06;;;10.00;100.00
54172;BME280;40076;52.354;4.970;2023-04-09T06:16:10;102596.25;;;10.01;100.00
54172;BME280;40076;52.354;4.970;2023-04-09T06:18:36;102596.00;;;10.02;100.00
54172;BME280;40076;52.354;4.970;2023-04-09T06:21:03;102597.88;;;10.02;100.00
54172;BME280;40076;52.354;4.970;2023-04-09T06:23:28;102602.47;;;10.01;100.00
54172;BME280;40076;52.354;4.970;2023-04-09T06:25:54;102604.91;;;10.03;100.00
54172;BME280;40076;52.354;4.970;2023-04-09T06:28:21;102610.31;;;10.03;100.00
54172;BME280;40076;52.354;4.970;2023-04-09T06:30:46;102614.09;;;10.02;100.00
54172;BME280;40076;52.354;4.970;2023-04-09T06:33:13;102611.41;;;10.02;100.00
54172;BME280;40076;52.354;4.970;2023-04-09T06:35:38;102606.00;;;10.02;100.00
54172;BME280;40076;52.354;4.970;2023-04-09T06:38:03;102608.69;;;10.02;100.00
54172;BME280;40076;52.354;4.970;2023-04-09T06:40:29;102607.88;;;10.01;100.00
54172;BME280;40076;52.354;4.970;2023-04-09T06:42:54;102615.16;;;10.01;100.00
54172;BME280;40076;52.354;4.970;2023-04-09T06:45:20;102613.28;;;10.01;100.00
54172;BME280;40076;52.354;4.970;2023-04-09T06:47:45;102616.78;;;10.02;100.00
54172;BME280;40076;52.354;4.970;2023-04-09T06:50:11;102603.28;;;10.02;100.00
54172;BME280;40076;52.354;4.970;2023-04-09T06:52:36;102605.19;;;10.01;100.00
54172;BME280;40076;52.354;4.970;2023-04-09T06:55:01;102608.69;;;10.02;100.00
54172;BME280;40076;52.354;4.970;2023-04-09T06:57:27;102601.66;;;10.01;100.00
54172;BME280;40076;52.354;4.970;2023-04-09T06:59:52;102606.81;;;10.02;100.00
54172;BME280;40076;52.354;4.970;2023-04-09T07:02:17;102605.19;;;10.01;100.00
54172;BME280;40076;52.354;4.970;2023-04-09T07:04:42;102617.34;;;9.99;100.00
54172;BME280;40076;52.354;4.970;2023-04-09T07:07:08;102616.81;;;9.97;100.00
54172;BME280;40076;52.354;4.970;2023-04-09T07:09:33;102613.03;;;9.98;100.00
54172;BME280;40076;52.354;4.970;2023-04-09T07:11:58;102618.69;;;9.96;100.00
54172;BME280;40076;52.354;4.970;2023-04-09T07:14:24;102610.59;;;9.96;100.00
54172;BME280;40076;52.354;4.970;2023-04-09T07:16:49;102614.66;;;9.99;100.00
54172;BME280;40076;52.354;4.970;2023-04-09T07:19:15;102610.34;;;9.98;100.00
54172;BME280;40076;52.354;4.970;2023-04-09T07:21:40;102601.16;;;9.99;100.00
54172;BME280;40076;52.354;4.970;2023-04-09T07:24:05;102611.66;;;10.00;100.00
54172;BME280;40076;52.354;4.970;2023-04-09T07:26:31;102603.56;;;10.00;100.00
54172;BME280;40076;52.354;4.970;2023-04-09T07:28:57;102609.78;;;10.01;100.00
54172;BME280;40076;52.354;4.970;2023-04-09T07:31:22;102613.00;;;10.03;100.00
54172;BME280;40076;52.354;4.970;2023-04-09T07:33:48;102612.75;;;10.04;100.00
54172;BME280;40076;52.354;4.970;2023-04-09T07:36:13;102614.38;;;10.05;100.00
54172;BME280;40076;52.354;4.970;2023-04-09T07:38:38;102617.88;;;10.06;100.00
54172;BME280;40076;52.354;4.970;2023-04-09T07:41:04;102618.69;;;10.06;100.00
54172;BME280;40076;52.354;4.970;2023-04-09T07:43:30;102625.44;;;10.09;100.00
54172;BME280;40076;52.354;4.970;2023-04-09T07:45:56;102614.88;;;10.07;100.00
54172;BME280;40076;52.354;4.970;2023-04-09T07:48:21;102616.25;;;10.10;100.00
54172;BME280;40076;52.354;4.970;2023-04-09T07:50:46;102617.88;;;10.11;100.00
54172;BME280;40076;52.354;4.970;2023-04-09T07:53:12;102609.78;;;10.11;100.00
54172;BME280;40076;52.354;4.970;2023-04-09T07:55:38;102610.59;;;10.12;100.00
54172;BME280;40076;52.354;4.970;2023-04-09T07:58:04;102607.88;;;10.12;100.00
54172;BME280;40076;52.354;4.970;2023-04-09T08:00:33;102613.28;;;10.12;100.00
54172;BME280;40076;52.354;4.970;2023-04-09T08:02:58;102605.19;;;10.12;100.00
54172;BME280;40076;52.354;4.970;2023-04-09T08:05:26;102605.19;;;10.12;100.00
54172;BME280;40076;52.354;4.970;2023-04-09T08:07:52;102610.03;;;10.10;100.00
54172;BME280;40076;52.354;4.970;2023-04-09T08:10:20;102600.84;;;10.11;100.00
54172;BME280;40076;52.354;4.970;2023-04-09T08:12:47;102612.47;;;10.11;100.00
54172;BME280;40076;52.354;4.970;2023-04-09T08:15:12;102621.94;;;10.14;100.00
54172;BME280;40076;52.354;4.970;2023-04-09T08:17:38;102616.53;;;10.14;100.00
54172;BME280;40076;52.354;4.970;2023-04-09T08:20:04;102613.81;;;10.14;100.00
54172;BME280;40076;52.354;4.970;2023-04-09T08:22:30;102615.41;;;10.15;100.00
54172;BME280;40076;52.354;4.970;2023-04-09T08:24:56;102619.75;;;10.16;100.00
54172;BME280;40076;52.354;4.970;2023-04-09T08:27:24;102618.13;;;10.15;100.00
54172;BME280;40076;52.354;4.970;2023-04-09T08:29:49;102607.06;;;10.16;100.00
54172;BME280;40076;52.354;4.970;2023-04-09T08:32:14;102612.44;;;10.16;100.00
54172;BME280;40076;52.354;4.970;2023-04-09T08:34:40;102615.41;;;10.15;100.00
54172;BME280;40076;52.354;4.970;2023-04-09T08:37:05;102605.72;;;10.14;100.00
54172;BME280;40076;52.354;4.970;2023-04-09T08:39:34;102600.31;;;10.14;100.00
54172;BME280;40076;52.354;4.970;2023-04-09T08:42:00;102610.31;;;10.13;100.00
54172;BME280;40076;52.354;4.970;2023-04-09T08:44:27;102606.53;;;10.14;100.00
54172;BME280;40076;52.354;4.970;2023-04-09T08:46:53;102614.34;;;10.16;100.00
54172;BME280;40076;52.354;4.970;2023-04-09T08:49:18;102611.13;;;10.14;100.00
54172;BME280;40076;52.354;4.970;2023-04-09T08:51:46;102618.13;;;10.15;100.00
54172;BME280;40076;52.354;4.970;2023-04-09T08:54:14;102618.66;;;10.17;100.00
54172;BME280;40076;52.354;4.970;2023-04-09T08:56:41;102613.03;;;10.18;100.00
54172;BME280;40076;52.354;4.970;2023-04-09T08:59:08;102615.47;;;10.20;100.00
54172;BME280;40076;52.354;4.970;2023-04-09T09:01:33;102615.47;;;10.20;100.00
54172;BME280;40076;52.354;4.970;2023-04-09T09:04:00;102608.69;;;10.22;100.00
54172;BME280;40076;52.354;4.970;2023-04-09T09:06:29;102611.13;;;10.24;100.00
54172;BME280;40076;52.354;4.970;2023-04-09T09:09:11;102607.91;;;10.22;100.00
54172;BME280;40076;52.354;4.970;2023-04-09T09:14:07;102597.06;;;10.27;100.00
54172;BME280;40076;52.354;4.970;2023-04-09T09:16:34;102597.63;;;10.29;100.00
54172;BME280;40076;52.354;4.970;2023-04-09T09:19:01;102601.66;;;10.31;100.00
54172;BME280;40076;52.354;4.970;2023-04-09T09:21:27;102596.53;;;10.35;100.00
54172;BME280;40076;52.354;4.970;2023-04-09T09:23:54;102596.75;;;10.38;100.00
54172;BME280;40076;52.354;4.970;2023-04-09T09:26:28;102598.13;;;10.41;100.00
54172;BME280;40076;52.354;4.970;2023-04-09T09:29:02;102600.28;;;10.44;100.00
54172;BME280;40076;52.354;4.970;2023-04-09T09:31:45;102597.56;;;10.49;100.00
54172;BME280;40076;52.354;4.970;2023-04-09T09:34:13;102599.72;;;10.52;100.00
54172;BME280;40076;52.354;4.970;2023-04-09T09:36:39;102594.28;;;10.57;100.00
54172;BME280;40076;52.354;4.970;2023-04-09T09:39:07;102596.44;;;10.60;100.00
54172;BME280;40076;52.354;4.970;2023-04-09T09:41:38;102593.19;;;10.63;100.00
54172;BME280;40076;52.354;4.970;2023-04-09T09:44:05;102588.03;;;10.67;100.00
54172;BME280;40076;52.354;4.970;2023-04-09T09:46:38;102600.19;;;10.69;100.00
54172;BME280;40076;52.354;4.970;2023-04-09T09:49:05;102586.94;;;10.73;100.00
54172;BME280;40076;52.354;4.970;2023-04-09T09:51:32;102591.00;;;10.75;100.00
54172;BME280;40076;52.354;4.970;2023-04-09T09:53:58;102588.78;;;10.77;100.00
54172;BME280;40076;52.354;4.970;2023-04-09T09:56:29;102585.56;;;10.80;100.00
54172;BME280;40076;52.354;4.970;2023-04-09T10:01:28;102580.09;;;10.86;100.00
54172;BME280;40076;52.354;4.970;2023-04-09T10:03:55;102583.88;;;10.90;100.00
54172;BME280;40076;52.354;4.970;2023-04-09T10:06:21;102576.28;;;10.92;100.00
54172;BME280;40076;52.354;4.970;2023-04-09T10:08:48;102572.78;;;10.91;100.00
54172;BME280;40076;52.354;4.970;2023-04-09T10:11:15;102573.84;;;10.95;100.00
54172;BME280;40076;52.354;4.970;2023-04-09T10:13:52;102569.47;;;10.99;100.00
54172;BME280;40076;52.354;4.970;2023-04-09T10:16:20;102567.84;;;11.03;100.00
54172;BME280;40076;52.354;4.970;2023-04-09T10:18:47;102563.22;;;11.09;100.00
54172;BME280;40076;52.354;4.970;2023-04-09T10:23:59;102550.19;;;11.16;100.00
54172;BME280;40076;52.354;4.970;2023-04-09T10:26:31;102553.41;;;11.18;100.00
54172;BME280;40076;52.354;4.970;2023-04-09T10:29:05;102543.63;;;11.22;100.00
54172;BME280;40076;52.354;4.970;2023-04-09T10:32:03;102542.00;;;11.26;100.00
54172;BME280;40076;52.354;4.970;2023-04-09T10:34:34;102542.81;;;11.27;100.00
54172;BME280;40076;52.354;4.970;2023-04-09T10:36:59;102537.13;;;11.28;100.00
54172;BME280;40076;52.354;4.970;2023-04-09T10:39:26;102535.44;;;11.32;100.00
54172;BME280;40076;52.354;4.970;2023-04-09T10:41:53;102532.69;;;11.37;100.00
54172;BME280;40076;52.354;4.970;2023-04-09T10:44:24;102539.19;;;11.41;100.00
54172;BME280;40076;52.354;4.970;2023-04-09T10:46:54;102528.88;;;11.43;100.00
54172;BME280;40076;52.354;4.970;2023-04-09T10:49:24;102522.88;;;11.46;100.00
54172;BME280;40076;52.354;4.970;2023-04-09T10:52:00;102529.66;;;11.49;100.00
54172;BME280;40076;52.354;4.970;2023-04-09T10:59:49;102519.53;;;11.59;100.00
54172;BME280;40076;52.354;4.970;2023-04-09T11:05:06;102515.91;;;11.69;100.00
54172;BME280;40076;52.354;4.970;2023-04-09T11:07:43;102506.16;;;11.73;100.00
54172;BME280;40076;52.354;4.970;2023-04-09T11:10:09;102508.03;;;11.78;100.00
54172;BME280;40076;52.354;4.970;2023-04-09T11:12:34;102503.06;;;11.85;100.00
54172;BME280;40076;52.354;4.970;2023-04-09T11:15:00;102504.63;;;11.91;100.00
54172;BME280;40076;52.354;4.970;2023-04-09T11:17:26;102501.88;;;11.96;100.00
54172;BME280;40076;52.354;4.970;2023-04-09T11:19:51;102498.31;;;12.01;100.00
54172;BME280;40076;52.354;4.970;2023-04-09T11:22:16;102494.44;;;12.07;100.00
54172;BME280;40076;52.354;4.970;2023-04-09T11:24:43;102489.53;;;12.09;100.00
54172;BME280;40076;52.354;4.970;2023-04-09T11:27:09;102489.78;;;12.12;100.00
54172;BME280;40076;52.354;4.970;2023-04-09T11:29:35;102490.28;;;12.14;100.00
54172;BME280;40076;52.354;4.970;2023-04-09T11:32:01;102484.66;;;12.11;100.00
54172;BME280;40076;52.354;4.970;2023-04-09T11:34:27;102484.59;;;12.16;100.00
54172;BME280;40076;52.354;4.970;2023-04-09T11:36:52;102473.97;;;12.19;100.00
54172;BME280;40076;52.354;4.970;2023-04-09T11:39:18;102476.09;;;12.22;100.00
54172;BME280;40076;52.354;4.970;2023-04-09T11:41:43;102467.41;;;12.25;100.00
54172;BME280;40076;52.354;4.970;2023-04-09T11:44:09;102473.84;;;12.29;100.00
54172;BME280;40076;52.354;4.970;2023-04-09T11:46:34;102462.44;;;12.32;100.00
54172;BME280;40076;52.354;4.970;2023-04-09T11:49:00;102471.28;;;12.38;100.00
54172;BME280;40076;52.354;4.970;2023-04-09T11:51:27;102461.50;;;12.42;100.00
54172;BME280;40076;52.354;4.970;2023-04-09T11:53:54;102460.09;;;12.45;100.00
54172;BME280;40076;52.354;4.970;2023-04-09T11:56:20;102460.03;;;12.50;100.00
54172;BME280;40076;52.354;4.970;2023-04-09T11:58:46;102461.06;;;12.54;100.00
54172;BME280;40076;52.354;4.970;2023-04-09T12:01:13;102462.91;;;12.58;100.00
54172;BME280;40076;52.354;4.970;2023-04-09T12:03:39;102467.22;;;12.59;100.00
54172;BME280;40076;52.354;4.970;2023-04-09T12:06:06;102476.91;;;12.65;100.00
54172;BME280;40076;52.354;4.970;2023-04-09T12:08:44;102469.50;;;12.71;100.00
54172;BME280;40076;52.354;4.970;2023-04-09T12:11:14;102466.69;;;12.76;100.00
54172;BME280;40076;52.354;4.970;2023-04-09T12:13:40;102470.13;;;12.82;100.00
54172;BME280;40076;52.354;4.970;2023-04-09T12:16:12;102459.22;;;12.87;100.00
54172;BME280;40076;52.354;4.970;2023-04-09T12:18:39;102460.25;;;12.91;100.00
54172;BME280;40076;52.354;4.970;2023-04-09T12:21:04;102458.84;;;12.93;100.00
54172;BME280;40076;52.354;4.970;2023-04-09T12:23:30;102462.56;;;12.97;100.00
54172;BME280;40076;52.354;4.970;2023-04-09T12:25:56;102463.38;;;12.98;100.00
54172;BME280;40076;52.354;4.970;2023-04-09T12:28:25;102463.63;;;13.01;100.00
54172;BME280;40076;52.354;4.970;2023-04-09T12:30:52;102464.94;;;13.04;100.00
54172;BME280;40076;52.354;4.970;2023-04-09T12:33:18;102463.03;;;13.04;100.00
54172;BME280;40076;52.354;4.970;2023-04-09T12:35:43;102466.25;;;13.06;100.00
54172;BME280;40076;52.354;4.970;2023-04-09T12:38:08;102464.84;;;13.09;100.00
54172;BME280;40076;52.354;4.970;2023-04-09T12:40:37;102461.31;;;13.08;100.00
54172;BME280;40076;52.354;4.970;2023-04-09T12:43:03;102457.47;;;13.14;100.00
54172;BME280;40076;52.354;4.970;2023-04-09T12:45:29;102449.25;;;13.20;100.00
54172;BME280;40076;52.354;4.970;2023-04-09T12:47:54;102452.16;;;13.23;100.00
54172;BME280;40076;52.354;4.970;2023-04-09T12:50:20;102454.28;;;13.26;100.00
54172;BME280;40076;52.354;4.970;2023-04-09T12:52:45;102456.69;;;13.28;100.00
54172;BME280;40076;52.354;4.970;2023-04-09T12:55:12;102459.41;;;13.28;100.00
54172;BME280;40076;52.354;4.970;2023-04-09T12:57:38;102460.72;;;13.30;100.00
54172;BME280;40076;52.354;4.970;2023-04-09T13:00:05;102456.63;;;13.33;100.00
54172;BME280;40076;52.354;4.970;2023-04-09T13:02:31;102460.94;;;13.34;100.00
54172;BME280;40076;52.354;4.970;2023-04-09T13:04:58;102458.72;;;13.36;100.00